sensor_id;sensor_type;location;lat;lon;timestamp;P1;durP1;ratioP1;P2;durP2;ratioP2
36351;SDS011;22382;44.768;17.206;2022-09-25T00:01:00;18.75;;;11.20;;
36351;SDS011;22382;44.768;17.206;2022-09-25T00:03:28;18.90;;;11.90;;
36351;SDS011;22382;44.768;17.206;2022-09-25T00:06:00;17.60;;;11.73;;
36351;SDS011;22382;44.768;17.206;2022-09-25T00:08:35;21.20;;;12.70;;
36351;SDS011;22382;44.768;17.206;2022-09-25T00:11:06;22.40;;;12.25;;
36351;SDS011;22382;44.768;17.206;2022-09-25T00:13:35;21.58;;;12.38;;
36351;SDS011;22382;44.768;17.206;2022-09-25T00:16:02;19.48;;;11.32;;
36351;SDS011;22382;44.768;17.206;2022-09-25T00:18:31;19.95;;;12.20;;
36351;SDS011;22382;44.768;17.206;2022-09-25T00:21:16;19.50;;;11.32;;
36351;SDS011;22382;44.768;17.206;2022-09-25T00:23:44;19.60;;;12.05;;
36351;SDS011;22382;44.768;17.206;2022-09-25T00:26:12;20.20;;;11.55;;
36351;SDS011;22382;44.768;17.206;2022-09-25T00:28:41;18.48;;;11.23;;
36351;SDS011;22382;44.768;17.206;2022-09-25T00:31:08;16.98;;;11.13;;
36351;SDS011;22382;44.768;17.206;2022-09-25T00:33:36;18.00;;;9.82;;
36351;SDS011;22382;44.768;17.206;2022-09-25T00:36:04;15.20;;;10.25;;
36351;SDS011;22382;44.768;17.206;2022-09-25T00:38:33;16.38;;;10.82;;
36351;SDS011;22382;44.768;17.206;2022-09-25T00:41:03;16.70;;;10.75;;
36351;SDS011;22382;44.768;17.206;2022-09-25T00:43:39;21.88;;;11.05;;
36351;SDS011;22382;44.768;17.206;2022-09-25T00:46:11;16.50;;;10.27;;
36351;SDS011;22382;44.768;17.206;2022-09-25T00:49:05;21.55;;;11.95;;
36351;SDS011;22382;44.768;17.206;2022-09-25T00:51:37;17.98;;;11.55;;
36351;SDS011;22382;44.768;17.206;2022-09-25T00:54:07;20.23;;;12.38;;
36351;SDS011;22382;44.768;17.206;2022-09-25T00:56:42;18.25;;;10.75;;
36351;SDS011;22382;44.768;17.206;2022-09-25T00:59:12;19.23;;;11.98;;
36351;SDS011;22382;44.768;17.206;2022-09-25T01:01:48;20.23;;;11.50;;
36351;SDS011;22382;44.768;17.206;2022-09-25T01:04:15;20.92;;;10.98;;
36351;SDS011;22382;44.768;17.206;2022-09-25T01:06:43;16.52;;;10.43;;
36351;SDS011;22382;44.768;17.206;2022-09-25T01:09:10;14.23;;;9.30;;
36351;SDS011;22382;44.768;17.206;2022-09-25T01:11:37;16.55;;;10.93;;
36351;SDS011;22382;44.768;17.206;2022-09-25T01:14:04;16.25;;;10.18;;
36351;SDS011;22382;44.768;17.206;2022-09-25T01:16:52;17.13;;;9.73;;
36351;SDS011;22382;44.768;17.206;2022-09-25T01:27:36;19.17;;;10.70;;
36351;SDS011;22382;44.768;17.206;2022-09-25T01:30:14;14.30;;;9.75;;
36351;SDS011;22382;44.768;17.206;2022-09-25T01:32:47;15.75;;;10.63;;
36351;SDS011;22382;44.768;17.206;2022-09-25T01:41:18;14.60;;;10.38;;
36351;SDS011;22382;44.768;17.206;2022-09-25T01:43:56;16.67;;;10.52;;
36351;SDS011;22382;44.768;17.206;2022-09-25T01:46:28;17.20;;;10.30;;
36351;SDS011;22382;44.768;17.206;2022-09-25T01:49:01;15.73;;;9.88;;
36351;SDS011;22382;44.768;17.206;2022-09-25T01:51:40;16.25;;;9.88;;
36351;SDS011;22382;44.768;17.206;2022-09-25T01:54:11;16.10;;;9.98;;
36351;SDS011;22382;44.768;17.206;2022-09-25T01:56:49;19.13;;;10.10;;
36351;SDS011;22382;44.768;17.206;2022-09-25T01:59:26;13.32;;;9.15;;
36351;SDS011;22382;44.768;17.206;2022-09-25T02:02:11;16.17;;;9.52;;
36351;SDS011;22382;44.768;17.206;2022-09-25T02:04:42;17.25;;;10.15;;
36351;SDS011;22382;44.768;17.206;2022-09-25T02:07:16;17.17;;;9.63;;
36351;SDS011;22382;44.768;17.206;2022-09-25T02:09:51;14.07;;;9.18;;
36351;SDS011;22382;44.768;17.206;2022-09-25T02:12:22;13.93;;;9.10;;
36351;SDS011;22382;44.768;17.206;2022-09-25T02:15:00;10.68;;;8.18;;
36351;SDS011;22382;44.768;17.206;2022-09-25T02:17:34;11.77;;;7.35;;
36351;SDS011;22382;44.768;17.206;2022-09-25T02:20:34;10.57;;;7.13;;
36351;SDS011;22382;44.768;17.206;2022-09-25T02:23:07;11.77;;;6.82;;
36351;SDS011;22382;44.768;17.206;2022-09-25T02:25:55;10.20;;;6.72;;
36351;SDS011;22382;44.768;17.206;2022-09-25T02:28:30;12.38;;;7.55;;
36351;SDS011;22382;44.768;17.206;2022-09-25T02:30:58;11.88;;;7.55;;
36351;SDS011;22382;44.768;17.206;2022-09-25T02:33:27;12.65;;;7.53;;
36351;SDS011;22382;44.768;17.206;2022-09-25T02:35:55;12.98;;;8.05;;
36351;SDS011;22382;44.768;17.206;2022-09-25T02:38:23;14.90;;;7.93;;
36351;SDS011;22382;44.768;17.206;2022-09-25T02:40:52;11.75;;;7.63;;
36351;SDS011;22382;44.768;17.206;2022-09-25T02:48:48;13.10;;;7.53;;
36351;SDS011;22382;44.768;17.206;2022-09-25T02:54:05;9.95;;;7.18;;
36351;SDS011;22382;44.768;17.206;2022-09-25T02:56:42;9.38;;;5.47;;
36351;SDS011;22382;44.768;17.206;2022-09-25T02:59:17;10.00;;;5.45;;
36351;SDS011;22382;44.768;17.206;2022-09-25T03:01:48;11.02;;;6.75;;
36351;SDS011;22382;44.768;17.206;2022-09-25T03:04:17;10.40;;;5.65;;
36351;SDS011;22382;44.768;17.206;2022-09-25T03:06:45;15.82;;;5.35;;
36351;SDS011;22382;44.768;17.206;2022-09-25T03:09:12;7.30;;;4.47;;
36351;SDS011;22382;44.768;17.206;2022-09-25T03:11:43;6.32;;;3.63;;
36351;SDS011;22382;44.768;17.206;2022-09-25T03:14:11;7.30;;;4.75;;
36351;SDS011;22382;44.768;17.206;2022-09-25T03:19:15;7.68;;;4.43;;
36351;SDS011;22382;44.768;17.206;2022-09-25T03:21:45;5.32;;;2.70;;
36351;SDS011;22382;44.768;17.206;2022-09-25T03:24:13;6.00;;;2.90;;
36351;SDS011;22382;44.768;17.206;2022-09-25T03:26:40;7.43;;;3.95;;
36351;SDS011;22382;44.768;17.206;2022-09-25T03:29:08;6.50;;;3.80;;
36351;SDS011;22382;44.768;17.206;2022-09-25T03:31:35;4.55;;;2.70;;
36351;SDS011;22382;44.768;17.206;2022-09-25T03:34:02;5.25;;;2.25;;
36351;SDS011;22382;44.768;17.206;2022-09-25T03:36:29;4.30;;;2.30;;
36351;SDS011;22382;44.768;17.206;2022-09-25T03:38:57;5.18;;;2.70;;
36351;SDS011;22382;44.768;17.206;2022-09-25T03:41:25;3.88;;;2.70;;
36351;SDS011;22382;44.768;17.206;2022-09-25T03:43:54;4.30;;;2.40;;
36351;SDS011;22382;44.768;17.206;2022-09-25T03:46:23;8.02;;;2.30;;
36351;SDS011;22382;44.768;17.206;2022-09-25T03:48:52;4.03;;;2.50;;
36351;SDS011;22382;44.768;17.206;2022-09-25T03:51:20;6.40;;;2.80;;
36351;SDS011;22382;44.768;17.206;2022-09-25T03:53:48;3.65;;;2.33;;
36351;SDS011;22382;44.768;17.206;2022-09-25T03:56:16;4.78;;;3.00;;
36351;SDS011;22382;44.768;17.206;2022-09-25T03:58:49;5.00;;;2.90;;
36351;SDS011;22382;44.768;17.206;2022-09-25T04:01:17;4.60;;;2.75;;
36351;SDS011;22382;44.768;17.206;2022-09-25T04:03:47;5.53;;;2.70;;
36351;SDS011;22382;44.768;17.206;2022-09-25T04:06:15;6.10;;;3.10;;
36351;SDS011;22382;44.768;17.206;2022-09-25T04:08:44;5.22;;;3.15;;
36351;SDS011;22382;44.768;17.206;2022-09-25T04:11:13;3.67;;;2.55;;
36351;SDS011;22382;44.768;17.206;2022-09-25T04:13:41;4.78;;;3.08;;
36351;SDS011;22382;44.768;17.206;2022-09-25T04:16:12;6.18;;;3.22;;
36351;SDS011;22382;44.768;17.206;2022-09-25T04:18:41;3.08;;;2.22;;
36351;SDS011;22382;44.768;17.206;2022-09-25T04:21:09;5.40;;;2.70;;
36351;SDS011;22382;44.768;17.206;2022-09-25T04:23:38;4.28;;;3.33;;
36351;SDS011;22382;44.768;17.206;2022-09-25T04:26:06;7.80;;;3.17;;
36351;SDS011;22382;44.768;17.206;2022-09-25T04:28:33;4.55;;;3.20;;
36351;SDS011;22382;44.768;17.206;2022-09-25T04:31:00;4.03;;;2.65;;
36351;SDS011;22382;44.768;17.206;2022-09-25T04:33:29;3.05;;;2.50;;
36351;SDS011;22382;44.768;17.206;2022-09-25T04:36:11;6.35;;;2.80;;
36351;SDS011;22382;44.768;17.206;2022-09-25T04:38:39;3.97;;;2.58;;
36351;SDS011;22382;44.768;17.206;2022-09-25T04:41:07;6.28;;;2.58;;
36351;SDS011;22382;44.768;17.206;2022-09-25T04:43:34;4.22;;;2.40;;
36351;SDS011;22382;44.768;17.206;2022-09-25T04:46:02;2.85;;;2.10;;
36351;SDS011;22382;44.768;17.206;2022-09-25T04:48:31;3.58;;;2.00;;
36351;SDS011;22382;44.768;17.206;2022-09-25T04:50:58;4.00;;;2.30;;
36351;SDS011;22382;44.768;17.206;2022-09-25T04:53:26;4.30;;;2.20;;
36351;SDS011;22382;44.768;17.206;2022-09-25T04:56:02;3.40;;;2.00;;
36351;SDS011;22382;44.768;17.206;2022-09-25T04:58:31;3.97;;;2.38;;
36351;SDS011;22382;44.768;17.206;2022-09-25T05:01:06;4.60;;;2.03;;
36351;SDS011;22382;44.768;17.206;2022-09-25T05:03:34;4.90;;;2.28;;
36351;SDS011;22382;44.768;17.206;2022-09-25T05:06:02;9.70;;;5.18;;
36351;SDS011;22382;44.768;17.206;2022-09-25T05:08:29;9.10;;;5.30;;
36351;SDS011;22382;44.768;17.206;2022-09-25T05:10:56;6.57;;;3.95;;
36351;SDS011;22382;44.768;17.206;2022-09-25T05:13:23;7.45;;;3.78;;
36351;SDS011;22382;44.768;17.206;2022-09-25T05:15:50;7.30;;;3.33;;
36351;SDS011;22382;44.768;17.206;2022-09-25T05:18:20;8.00;;;3.15;;
36351;SDS011;22382;44.768;17.206;2022-09-25T05:20:49;5.50;;;2.90;;
36351;SDS011;22382;44.768;17.206;2022-09-25T05:23:18;6.65;;;3.10;;
36351;SDS011;22382;44.768;17.206;2022-09-25T05:25:55;4.78;;;2.70;;
36351;SDS011;22382;44.768;17.206;2022-09-25T05:28:29;5.18;;;3.03;;
36351;SDS011;22382;44.768;17.206;2022-09-25T05:31:00;7.60;;;2.50;;
36351;SDS011;22382;44.768;17.206;2022-09-25T05:33:30;5.85;;;3.15;;
36351;SDS011;22382;44.768;17.206;2022-09-25T05:36:04;6.90;;;3.20;;
36351;SDS011;22382;44.768;17.206;2022-09-25T05:38:33;5.07;;;3.30;;
36351;SDS011;22382;44.768;17.206;2022-09-25T05:41:05;4.47;;;2.70;;
36351;SDS011;22382;44.768;17.206;2022-09-25T05:43:36;5.90;;;3.20;;
36351;SDS011;22382;44.768;17.206;2022-09-25T05:46:09;7.32;;;3.20;;
36351;SDS011;22382;44.768;17.206;2022-09-25T05:48:37;3.80;;;2.80;;
36351;SDS011;22382;44.768;17.206;2022-09-25T05:51:04;4.30;;;3.03;;
36351;SDS011;22382;44.768;17.206;2022-09-25T05:53:31;4.70;;;3.08;;
36351;SDS011;22382;44.768;17.206;2022-09-25T05:55:59;4.57;;;3.00;;
36351;SDS011;22382;44.768;17.206;2022-09-25T05:58:29;7.28;;;3.58;;
36351;SDS011;22382;44.768;17.206;2022-09-25T06:01:00;6.10;;;3.22;;
36351;SDS011;22382;44.768;17.206;2022-09-25T06:03:29;4.85;;;3.25;;
36351;SDS011;22382;44.768;17.206;2022-09-25T06:05:59;4.65;;;3.20;;
36351;SDS011;22382;44.768;17.206;2022-09-25T06:08:27;5.72;;;3.80;;
36351;SDS011;22382;44.768;17.206;2022-09-25T06:10:58;6.05;;;4.22;;
36351;SDS011;22382;44.768;17.206;2022-09-25T06:13:29;6.72;;;4.03;;
36351;SDS011;22382;44.768;17.206;2022-09-25T06:16:00;8.77;;;6.20;;
36351;SDS011;22382;44.768;17.206;2022-09-25T06:18:28;8.43;;;5.07;;
36351;SDS011;22382;44.768;17.206;2022-09-25T06:20:59;6.47;;;4.53;;
36351;SDS011;22382;44.768;17.206;2022-09-25T06:23:28;7.68;;;4.30;;
36351;SDS011;22382;44.768;17.206;2022-09-25T06:26:02;5.90;;;4.00;;
36351;SDS011;22382;44.768;17.206;2022-09-25T06:28:30;7.05;;;4.90;;
36351;SDS011;22382;44.768;17.206;2022-09-25T06:30:58;8.02;;;5.00;;
36351;SDS011;22382;44.768;17.206;2022-09-25T06:33:26;5.30;;;4.00;;
36351;SDS011;22382;44.768;17.206;2022-09-25T06:35:53;6.18;;;4.20;;
36351;SDS011;22382;44.768;17.206;2022-09-25T06:38:20;9.13;;;6.45;;
36351;SDS011;22382;44.768;17.206;2022-09-25T06:40:48;8.63;;;6.88;;
36351;SDS011;22382;44.768;17.206;2022-09-25T06:43:15;6.75;;;4.90;;
36351;SDS011;22382;44.768;17.206;2022-09-25T06:45:42;10.38;;;5.53;;
36351;SDS011;22382;44.768;17.206;2022-09-25T06:48:12;8.25;;;5.10;;
36351;SDS011;22382;44.768;17.206;2022-09-25T06:50:49;8.30;;;5.07;;
36351;SDS011;22382;44.768;17.206;2022-09-25T06:53:21;7.25;;;5.43;;
36351;SDS011;22382;44.768;17.206;2022-09-25T06:55:49;6.50;;;4.72;;
36351;SDS011;22382;44.768;17.206;2022-09-25T06:58:18;8.70;;;6.68;;
36351;SDS011;22382;44.768;17.206;2022-09-25T07:00:47;23.90;;;15.88;;
36351;SDS011;22382;44.768;17.206;2022-09-25T07:03:15;23.08;;;15.32;;
36351;SDS011;22382;44.768;17.206;2022-09-25T07:06:02;12.35;;;7.63;;
36351;SDS011;22382;44.768;17.206;2022-09-25T07:08:30;9.63;;;5.95;;
36351;SDS011;22382;44.768;17.206;2022-09-25T07:10:57;8.63;;;6.30;;
36351;SDS011;22382;44.768;17.206;2022-09-25T07:13:26;12.15;;;7.53;;
36351;SDS011;22382;44.768;17.206;2022-09-25T07:15:56;9.65;;;6.07;;
36351;SDS011;22382;44.768;17.206;2022-09-25T07:18:25;9.55;;;7.07;;
36351;SDS011;22382;44.768;17.206;2022-09-25T07:20:58;8.35;;;5.25;;
36351;SDS011;22382;44.768;17.206;2022-09-25T07:23:36;9.45;;;6.57;;
36351;SDS011;22382;44.768;17.206;2022-09-25T07:29:03;7.82;;;6.05;;
36351;SDS011;22382;44.768;17.206;2022-09-25T07:31:32;9.82;;;6.80;;
36351;SDS011;22382;44.768;17.206;2022-09-25T07:34:00;8.68;;;6.63;;
36351;SDS011;22382;44.768;17.206;2022-09-25T07:36:31;12.23;;;8.52;;
36351;SDS011;22382;44.768;17.206;2022-09-25T07:38:59;11.82;;;7.50;;
36351;SDS011;22382;44.768;17.206;2022-09-25T07:41:26;12.43;;;6.63;;
36351;SDS011;22382;44.768;17.206;2022-09-25T07:43:53;12.63;;;8.93;;
36351;SDS011;22382;44.768;17.206;2022-09-25T07:46:44;13.45;;;8.00;;
36351;SDS011;22382;44.768;17.206;2022-09-25T07:49:12;11.57;;;7.85;;
36351;SDS011;22382;44.768;17.206;2022-09-25T07:51:39;10.63;;;7.57;;
36351;SDS011;22382;44.768;17.206;2022-09-25T07:54:06;8.98;;;6.55;;
36351;SDS011;22382;44.768;17.206;2022-09-25T07:56:34;11.63;;;6.90;;
36351;SDS011;22382;44.768;17.206;2022-09-25T07:59:03;9.95;;;7.47;;
36351;SDS011;22382;44.768;17.206;2022-09-25T08:01:30;10.35;;;7.20;;
36351;SDS011;22382;44.768;17.206;2022-09-25T08:03:57;14.20;;;9.02;;
36351;SDS011;22382;44.768;17.206;2022-09-25T08:06:24;13.70;;;8.63;;
36351;SDS011;22382;44.768;17.206;2022-09-25T08:08:51;12.10;;;7.88;;
36351;SDS011;22382;44.768;17.206;2022-09-25T08:11:18;12.20;;;8.07;;
36351;SDS011;22382;44.768;17.206;2022-09-25T08:13:45;11.15;;;8.13;;
36351;SDS011;22382;44.768;17.206;2022-09-25T08:16:14;12.75;;;8.82;;
36351;SDS011;22382;44.768;17.206;2022-09-25T08:18:43;14.25;;;10.85;;
36351;SDS011;22382;44.768;17.206;2022-09-25T08:21:13;13.25;;;8.50;;
36351;SDS011;22382;44.768;17.206;2022-09-25T08:23:43;12.80;;;9.20;;
36351;SDS011;22382;44.768;17.206;2022-09-25T08:26:15;15.68;;;10.88;;
36351;SDS011;22382;44.768;17.206;2022-09-25T08:28:43;16.00;;;10.65;;
36351;SDS011;22382;44.768;17.206;2022-09-25T08:31:10;14.52;;;11.27;;
36351;SDS011;22382;44.768;17.206;2022-09-25T08:33:44;16.65;;;11.65;;
36351;SDS011;22382;44.768;17.206;2022-09-25T08:36:12;17.27;;;11.55;;
36351;SDS011;22382;44.768;17.206;2022-09-25T08:38:45;17.88;;;11.48;;
36351;SDS011;22382;44.768;17.206;2022-09-25T08:41:17;17.23;;;11.20;;
36351;SDS011;22382;44.768;17.206;2022-09-25T08:46:39;15.15;;;11.20;;
36351;SDS011;22382;44.768;17.206;2022-09-25T08:49:35;18.83;;;13.85;;
36351;SDS011;22382;44.768;17.206;2022-09-25T08:52:06;16.98;;;11.30;;
36351;SDS011;22382;44.768;17.206;2022-09-25T08:57:20;15.02;;;10.88;;
36351;SDS011;22382;44.768;17.206;2022-09-25T09:00:06;18.90;;;13.30;;
36351;SDS011;22382;44.768;17.206;2022-09-25T09:02:39;16.48;;;11.32;;
36351;SDS011;22382;44.768;17.206;2022-09-25T09:05:44;15.48;;;10.85;;
36351;SDS011;22382;44.768;17.206;2022-09-25T09:08:14;17.17;;;11.75;;
36351;SDS011;22382;44.768;17.206;2022-09-25T09:10:49;13.95;;;10.73;;
36351;SDS011;22382;44.768;17.206;2022-09-25T09:18:24;20.73;;;14.93;;
36351;SDS011;22382;44.768;17.206;2022-09-25T09:20:53;19.30;;;13.45;;
36351;SDS011;22382;44.768;17.206;2022-09-25T09:23:30;17.88;;;12.30;;
36351;SDS011;22382;44.768;17.206;2022-09-25T09:26:01;17.30;;;11.05;;
36351;SDS011;22382;44.768;17.206;2022-09-25T09:43:10;14.63;;;10.88;;
36351;SDS011;22382;44.768;17.206;2022-09-25T09:45:48;16.27;;;11.50;;
36351;SDS011;22382;44.768;17.206;2022-09-25T09:51:11;18.10;;;12.57;;
36351;SDS011;22382;44.768;17.206;2022-09-25T09:53:59;19.73;;;14.10;;
36351;SDS011;22382;44.768;17.206;2022-09-25T09:56:35;19.65;;;12.63;;
36351;SDS011;22382;44.768;17.206;2022-09-25T09:59:05;21.23;;;13.23;;
36351;SDS011;22382;44.768;17.206;2022-09-25T10:01:44;17.15;;;11.20;;
36351;SDS011;22382;44.768;17.206;2022-09-25T10:04:18;16.48;;;11.55;;
36351;SDS011;22382;44.768;17.206;2022-09-25T10:06:57;18.27;;;12.15;;
36351;SDS011;22382;44.768;17.206;2022-09-25T10:09:28;16.23;;;11.45;;
36351;SDS011;22382;44.768;17.206;2022-09-25T10:12:05;14.93;;;10.68;;
36351;SDS011;22382;44.768;17.206;2022-09-25T10:14:50;14.02;;;10.55;;
36351;SDS011;22382;44.768;17.206;2022-09-25T10:17:18;15.25;;;11.63;;
36351;SDS011;22382;44.768;17.206;2022-09-25T10:20:11;14.30;;;10.30;;
36351;SDS011;22382;44.768;17.206;2022-09-25T10:22:43;17.23;;;11.05;;
36351;SDS011;22382;44.768;17.206;2022-09-25T10:25:12;16.42;;;10.30;;
36351;SDS011;22382;44.768;17.206;2022-09-25T10:27:41;16.50;;;11.15;;
36351;SDS011;22382;44.768;17.206;2022-09-25T10:30:18;17.60;;;12.07;;
36351;SDS011;22382;44.768;17.206;2022-09-25T10:32:52;19.25;;;13.75;;
36351;SDS011;22382;44.768;17.206;2022-09-25T10:35:24;11.32;;;8.73;;
36351;SDS011;22382;44.768;17.206;2022-09-25T10:37:54;15.50;;;11.30;;
36351;SDS011;22382;44.768;17.206;2022-09-25T10:40:28;12.35;;;8.13;;
36351;SDS011;22382;44.768;17.206;2022-09-25T10:43:04;11.57;;;7.65;;
36351;SDS011;22382;44.768;17.206;2022-09-25T10:45:37;12.98;;;7.20;;
36351;SDS011;22382;44.768;17.206;2022-09-25T10:51:13;12.20;;;8.05;;
36351;SDS011;22382;44.768;17.206;2022-09-25T10:53:44;13.75;;;7.90;;
36351;SDS011;22382;44.768;17.206;2022-09-25T10:56:30;15.52;;;8.98;;
36351;SDS011;22382;44.768;17.206;2022-09-25T10:59:01;12.85;;;7.88;;
36351;SDS011;22382;44.768;17.206;2022-09-25T11:01:47;13.40;;;7.82;;
36351;SDS011;22382;44.768;17.206;2022-09-25T11:04:29;16.92;;;8.00;;
36351;SDS011;22382;44.768;17.206;2022-09-25T11:07:00;18.80;;;9.07;;
36351;SDS011;22382;44.768;17.206;2022-09-25T11:09:32;18.40;;;8.70;;
36351;SDS011;22382;44.768;17.206;2022-09-25T11:12:15;12.68;;;7.53;;
36351;SDS011;22382;44.768;17.206;2022-09-25T11:15:03;12.93;;;7.43;;
36351;SDS011;22382;44.768;17.206;2022-09-25T11:17:37;12.95;;;7.57;;
36351;SDS011;22382;44.768;17.206;2022-09-25T11:20:25;14.40;;;6.95;;
36351;SDS011;22382;44.768;17.206;2022-09-25T11:34:06;9.65;;;4.90;;
36351;SDS011;22382;44.768;17.206;2022-09-25T11:39:44;16.40;;;7.50;;
36351;SDS011;22382;44.768;17.206;2022-09-25T11:42:46;8.68;;;4.72;;
36351;SDS011;22382;44.768;17.206;2022-09-25T11:50:31;6.32;;;4.10;;
36351;SDS011;22382;44.768;17.206;2022-09-25T11:53:19;7.88;;;4.68;;
36351;SDS011;22382;44.768;17.206;2022-09-25T12:19:15;5.28;;;2.67;;
36351;SDS011;22382;44.768;17.206;2022-09-25T12:24:35;4.75;;;2.22;;
36351;SDS011;22382;44.768;17.206;2022-09-25T12:32:45;4.80;;;2.97;;
36351;SDS011;22382;44.768;17.206;2022-09-25T12:38:25;7.25;;;3.60;;
36351;SDS011;22382;44.768;17.206;2022-09-25T12:44:00;3.42;;;2.47;;
36351;SDS011;22382;44.768;17.206;2022-09-25T12:52:07;5.43;;;2.63;;
36351;SDS011;22382;44.768;17.206;2022-09-25T13:00:28;4.32;;;3.10;;
36351;SDS011;22382;44.768;17.206;2022-09-25T13:02:59;4.93;;;3.15;;
36351;SDS011;22382;44.768;17.206;2022-09-25T13:08:18;3.22;;;2.20;;
36351;SDS011;22382;44.768;17.206;2022-09-25T13:10:51;6.15;;;2.50;;
36351;SDS011;22382;44.768;17.206;2022-09-25T13:13:27;4.10;;;2.05;;
36351;SDS011;22382;44.768;17.206;2022-09-25T13:16:01;5.20;;;2.38;;
36351;SDS011;22382;44.768;17.206;2022-09-25T13:18:29;3.75;;;2.42;;
36351;SDS011;22382;44.768;17.206;2022-09-25T13:21:21;5.60;;;2.58;;
36351;SDS011;22382;44.768;17.206;2022-09-25T13:24:06;3.25;;;2.17;;
36351;SDS011;22382;44.768;17.206;2022-09-25T13:26:43;4.13;;;2.63;;
36351;SDS011;22382;44.768;17.206;2022-09-25T13:29:18;8.70;;;2.85;;
36351;SDS011;22382;44.768;17.206;2022-09-25T13:32:05;4.13;;;2.78;;
36351;SDS011;22382;44.768;17.206;2022-09-25T13:34:39;4.95;;;2.70;;
36351;SDS011;22382;44.768;17.206;2022-09-25T13:37:08;3.33;;;2.33;;
36351;SDS011;22382;44.768;17.206;2022-09-25T13:39:38;6.97;;;2.63;;
36351;SDS011;22382;44.768;17.206;2022-09-25T13:42:32;7.50;;;2.40;;
36351;SDS011;22382;44.768;17.206;2022-09-25T13:50:34;3.38;;;2.20;;
36351;SDS011;22382;44.768;17.206;2022-09-25T13:58:17;4.18;;;2.67;;
36351;SDS011;22382;44.768;17.206;2022-09-25T14:03:29;9.95;;;5.03;;
36351;SDS011;22382;44.768;17.206;2022-09-25T14:06:01;8.13;;;5.10;;
36351;SDS011;22382;44.768;17.206;2022-09-25T14:08:31;6.55;;;4.97;;
36351;SDS011;22382;44.768;17.206;2022-09-25T14:11:01;5.20;;;3.80;;
36351;SDS011;22382;44.768;17.206;2022-09-25T14:13:30;6.07;;;3.50;;
36351;SDS011;22382;44.768;17.206;2022-09-25T14:15:59;6.38;;;4.15;;
36351;SDS011;22382;44.768;17.206;2022-09-25T14:18:32;10.15;;;6.38;;
36351;SDS011;22382;44.768;17.206;2022-09-25T14:21:06;9.77;;;6.22;;
36351;SDS011;22382;44.768;17.206;2022-09-25T14:23:57;9.40;;;5.70;;
36351;SDS011;22382;44.768;17.206;2022-09-25T14:26:24;10.68;;;5.63;;
36351;SDS011;22382;44.768;17.206;2022-09-25T14:28:53;9.15;;;4.90;;
36351;SDS011;22382;44.768;17.206;2022-09-25T14:42:08;6.47;;;4.38;;
36351;SDS011;22382;44.768;17.206;2022-09-25T14:47:33;6.95;;;4.15;;
36351;SDS011;22382;44.768;17.206;2022-09-25T14:50:03;5.35;;;3.50;;
36351;SDS011;22382;44.768;17.206;2022-09-25T14:52:33;10.57;;;5.75;;
36351;SDS011;22382;44.768;17.206;2022-09-25T14:55:02;12.35;;;7.05;;
36351;SDS011;22382;44.768;17.206;2022-09-25T14:57:30;9.95;;;7.57;;
36351;SDS011;22382;44.768;17.206;2022-09-25T15:00:00;10.90;;;7.63;;
36351;SDS011;22382;44.768;17.206;2022-09-25T15:02:37;17.30;;;11.57;;
36351;SDS011;22382;44.768;17.206;2022-09-25T15:07:56;9.73;;;6.90;;
36351;SDS011;22382;44.768;17.206;2022-09-25T15:10:34;10.63;;;6.47;;
36351;SDS011;22382;44.768;17.206;2022-09-25T15:13:04;11.98;;;6.45;;
36351;SDS011;22382;44.768;17.206;2022-09-25T15:15:33;9.82;;;5.95;;
36351;SDS011;22382;44.768;17.206;2022-09-25T15:18:00;7.28;;;5.00;;
36351;SDS011;22382;44.768;17.206;2022-09-25T15:20:28;7.60;;;4.97;;
36351;SDS011;22382;44.768;17.206;2022-09-25T15:23:04;11.30;;;6.60;;
36351;SDS011;22382;44.768;17.206;2022-09-25T15:25:38;11.80;;;7.97;;
36351;SDS011;22382;44.768;17.206;2022-09-25T15:28:12;9.73;;;6.78;;
36351;SDS011;22382;44.768;17.206;2022-09-25T15:30:43;11.73;;;7.15;;
36351;SDS011;22382;44.768;17.206;2022-09-25T15:33:19;12.35;;;8.45;;
36351;SDS011;22382;44.768;17.206;2022-09-25T15:35:57;9.48;;;6.75;;
36351;SDS011;22382;44.768;17.206;2022-09-25T15:38:32;8.65;;;6.05;;
36351;SDS011;22382;44.768;17.206;2022-09-25T15:41:07;9.07;;;6.40;;
36351;SDS011;22382;44.768;17.206;2022-09-25T15:43:38;7.28;;;5.60;;
36351;SDS011;22382;44.768;17.206;2022-09-25T15:48:39;12.50;;;8.02;;
36351;SDS011;22382;44.768;17.206;2022-09-25T15:51:19;9.35;;;6.65;;
36351;SDS011;22382;44.768;17.206;2022-09-25T15:53:51;10.65;;;6.78;;
36351;SDS011;22382;44.768;17.206;2022-09-25T15:56:25;9.43;;;6.95;;
36351;SDS011;22382;44.768;17.206;2022-09-25T15:58:58;9.63;;;7.07;;
36351;SDS011;22382;44.768;17.206;2022-09-25T16:01:30;10.52;;;6.68;;
36351;SDS011;22382;44.768;17.206;2022-09-25T16:04:21;10.80;;;7.45;;
36351;SDS011;22382;44.768;17.206;2022-09-25T16:22:51;14.38;;;9.15;;
36351;SDS011;22382;44.768;17.206;2022-09-25T16:25:23;17.20;;;12.55;;
36351;SDS011;22382;44.768;17.206;2022-09-25T16:27:53;13.48;;;9.68;;
36351;SDS011;22382;44.768;17.206;2022-09-25T16:30:26;20.80;;;12.45;;
36351;SDS011;22382;44.768;17.206;2022-09-25T16:32:54;14.57;;;10.85;;
36351;SDS011;22382;44.768;17.206;2022-09-25T16:35:26;14.10;;;10.10;;
36351;SDS011;22382;44.768;17.206;2022-09-25T16:38:31;16.80;;;11.38;;
36351;SDS011;22382;44.768;17.206;2022-09-25T16:41:20;13.73;;;9.40;;
36351;SDS011;22382;44.768;17.206;2022-09-25T16:44:09;17.70;;;12.95;;
36351;SDS011;22382;44.768;17.206;2022-09-25T16:49:17;17.83;;;12.00;;
36351;SDS011;22382;44.768;17.206;2022-09-25T16:51:48;19.50;;;14.02;;
36351;SDS011;22382;44.768;17.206;2022-09-25T16:54:18;19.15;;;12.73;;
36351;SDS011;22382;44.768;17.206;2022-09-25T16:56:47;14.13;;;10.73;;
36351;SDS011;22382;44.768;17.206;2022-09-25T17:01:46;25.30;;;19.48;;
36351;SDS011;22382;44.768;17.206;2022-09-25T17:04:15;30.05;;;21.08;;
36351;SDS011;22382;44.768;17.206;2022-09-25T17:06:43;26.73;;;19.88;;
36351;SDS011;22382;44.768;17.206;2022-09-25T17:09:14;28.55;;;17.92;;
36351;SDS011;22382;44.768;17.206;2022-09-25T17:11:45;20.85;;;14.95;;
36351;SDS011;22382;44.768;17.206;2022-09-25T17:14:19;23.63;;;16.85;;
36351;SDS011;22382;44.768;17.206;2022-09-25T17:16:50;31.73;;;18.92;;
36351;SDS011;22382;44.768;17.206;2022-09-25T17:19:19;25.73;;;16.67;;
36351;SDS011;22382;44.768;17.206;2022-09-25T17:21:47;31.45;;;21.17;;
36351;SDS011;22382;44.768;17.206;2022-09-25T17:24:17;25.50;;;18.30;;
36351;SDS011;22382;44.768;17.206;2022-09-25T17:26:45;25.48;;;16.40;;
36351;SDS011;22382;44.768;17.206;2022-09-25T17:29:12;23.05;;;15.55;;
36351;SDS011;22382;44.768;17.206;2022-09-25T17:31:39;23.70;;;16.08;;
36351;SDS011;22382;44.768;17.206;2022-09-25T17:34:16;21.05;;;14.73;;
36351;SDS011;22382;44.768;17.206;2022-09-25T17:36:53;34.92;;;21.98;;
36351;SDS011;22382;44.768;17.206;2022-09-25T17:39:23;72.68;;;44.95;;
36351;SDS011;22382;44.768;17.206;2022-09-25T17:41:50;75.68;;;46.45;;
36351;SDS011;22382;44.768;17.206;2022-09-25T17:44:18;79.63;;;49.80;;
36351;SDS011;22382;44.768;17.206;2022-09-25T17:46:49;69.07;;;45.13;;
36351;SDS011;22382;44.768;17.206;2022-09-25T17:49:17;40.72;;;27.52;;
36351;SDS011;22382;44.768;17.206;2022-09-25T17:51:44;39.10;;;25.95;;
36351;SDS011;22382;44.768;17.206;2022-09-25T17:54:11;45.72;;;30.83;;
36351;SDS011;22382;44.768;17.206;2022-09-25T17:56:38;33.53;;;23.90;;